createdAt,value
2023-04-04T00:05:34.591Z,13.09
2023-04-04T00:20:36.714Z,13.02
2023-04-04T00:35:38.900Z,12.54
2023-04-04T00:50:41.271Z,12.18
2023-04-04T01:05:43.728Z,12.49
2023-04-04T01:20:45.844Z,11.52
2023-04-04T01:35:47.964Z,10.76
2023-04-04T01:50:50.221Z,11.11
2023-04-04T02:05:53.421Z,9.67
2023-04-04T02:20:55.504Z,9.13
2023-04-04T02:35:57.679Z,9.47
2023-04-04T02:50:59.844Z,9.49
2023-04-04T03:06:02.061Z,9.38
2023-04-04T03:21:04.158Z,9.25
2023-04-04T03:36:06.240Z,7.94
2023-04-04T03:51:08.473Z,7.89
2023-04-04T04:06:10.601Z,7.45
2023-04-04T04:21:12.713Z,7.33
2023-04-04T04:36:14.836Z,7.24
2023-04-04T04:51:16.964Z,6.14
2023-04-04T05:06:19.062Z,6.19
2023-04-04T05:21:21.178Z,6.6
2023-04-04T05:36:23.426Z,6.16
2023-04-04T05:51:25.542Z,5.89
2023-04-04T06:06:27.656Z,5.78
2023-04-04T06:21:29.718Z,5.8
2023-04-04T06:36:31.917Z,5.46
2023-04-04T06:51:34.055Z,4.86
2023-04-04T07:06:36.136Z,4.61
2023-04-04T07:21:38.331Z,4.58
2023-04-04T07:36:40.397Z,4.11
2023-04-04T07:51:42.551Z,3.78
2023-04-04T08:06:44.696Z,3.57
2023-04-04T08:21:46.780Z,3.72
2023-04-04T08:36:48.879Z,3.23
2023-04-04T08:51:51.035Z,3.29
2023-04-04T09:06:53.281Z,3.1
2023-04-04T09:21:55.351Z,2.83
2023-04-04T09:36:57.443Z,2.66
2023-04-04T09:51:59.883Z,2.47
2023-04-04T10:07:02.020Z,2.33
2023-04-04T10:22:04.130Z,2.13
2023-04-04T10:37:06.505Z,2.2
2023-04-04T10:52:08.642Z,2.24
2023-04-04T11:07:10.736Z,2.06
2023-04-04T11:22:12.896Z,1.97
2023-04-04T11:37:15.031Z,1.52
2023-04-04T11:52:17.212Z,1.93
2023-04-04T12:07:19.345Z,1.18
2023-04-04T12:22:21.410Z,1.39
2023-04-04T12:37:23.608Z,1.34
2023-04-04T12:52:25.783Z,1.42
2023-04-04T13:07:27.981Z,1.2
2023-04-04T13:22:30.125Z,0.81
2023-04-04T13:37:32.276Z,0.9
2023-04-04T13:52:34.405Z,0.94
2023-04-04T14:07:36.446Z,0.67
2023-04-04T14:22:38.582Z,0.52
2023-04-04T14:37:41.157Z,4.29
2023-04-04T14:52:43.264Z,6.66
2023-04-04T15:07:45.428Z,6.45
2023-04-04T15:22:47.547Z,8.3
2023-04-04T15:37:49.775Z,7.83
2023-04-04T15:52:51.989Z,6.37
2023-04-04T16:07:54.400Z,5.2
2023-04-04T16:22:56.812Z,9.12
2023-04-04T16:37:59.332Z,7.36
2023-04-04T16:53:01.608Z,8.63
2023-04-04T17:08:03.940Z,8.89
2023-04-04T17:23:06.192Z,10.07
2023-04-04T17:38:09.659Z,10.71
2023-04-04T17:53:12.617Z,11.59
2023-04-04T18:08:14.950Z,12.73
2023-04-04T18:23:17.625Z,12.43
2023-04-04T18:38:20.083Z,12.89
2023-04-04T18:53:22.389Z,12.71
2023-04-04T19:08:24.721Z,13.25
2023-04-04T19:23:27.129Z,12.96
2023-04-04T19:38:29.378Z,14.28
2023-04-04T19:53:31.500Z,13.28
2023-04-04T20:08:33.606Z,13.47
2023-04-04T20:23:35.642Z,14.09
2023-04-04T20:38:37.772Z,14.34
2023-04-04T20:53:39.952Z,15.51
2023-04-04T21:08:42.144Z,15.6
2023-04-04T21:23:44.246Z,16.2
2023-04-04T21:38:46.570Z,15.39
2023-04-04T21:53:48.692Z,15.37
2023-04-04T22:08:50.757Z,15.39
2023-04-04T22:23:53.011Z,15.46
2023-04-04T22:38:55.103Z,15.01
